createdAt,value
2022-09-06T00:02:17.789Z,96101.09
2022-09-06T00:05:06.104Z,96112.94
2022-09-06T00:07:53.125Z,96105.28
2022-09-06T00:10:40.370Z,96104.56
2022-09-06T00:13:27.345Z,96109.25
2022-09-06T00:16:19.832Z,96110.84
2022-09-06T00:19:06.788Z,96108.41
2022-09-06T00:21:53.686Z,96113.00
2022-09-06T00:24:40.735Z,96113.47
2022-09-06T00:27:28.524Z,96124.34
2022-09-06T00:30:15.497Z,96124.94
2022-09-06T00:33:02.627Z,96124.59
2022-09-06T00:35:50.188Z,96128.50
2022-09-06T00:38:38.084Z,96118.97
2022-09-06T00:41:25.319Z,96113.47
2022-09-06T00:44:12.408Z,96114.03
2022-09-06T00:46:59.347Z,96120.53
2022-09-06T00:49:49.624Z,96130.50
2022-09-06T00:52:37.924Z,96123.28
2022-09-06T00:55:26.306Z,96123.84
2022-09-06T00:58:13.644Z,96119.16
2022-09-06T01:01:01.302Z,96114.31
2022-09-06T01:03:48.601Z,96108.50
2022-09-06T01:06:57.400Z,96113.28
2022-09-06T01:10:05.989Z,96109.09
2022-09-06T01:13:08.049Z,96117.69
2022-09-06T01:16:32.193Z,96108.63
2022-09-06T01:19:40.811Z,96113.97
2022-09-06T01:22:27.800Z,96118.31
2022-09-06T01:25:43.071Z,96116.00
2022-09-06T01:28:32.173Z,96119.56
2022-09-06T01:31:44.575Z,96122.53
2022-09-06T01:34:48.050Z,96128.66
2022-09-06T01:37:35.303Z,96119.94
2022-09-06T01:40:22.349Z,96129.63
2022-09-06T01:43:12.990Z,96140.53
2022-09-06T01:46:05.727Z,96141.25
2022-09-06T01:48:52.698Z,96133.25
2022-09-06T01:52:07.621Z,96134.28
2022-09-06T01:55:11.455Z,96141.34
2022-09-06T01:58:36.841Z,96135.94
2022-09-06T02:01:37.887Z,96132.50
2022-09-06T02:04:40.979Z,96152.59
2022-09-06T02:07:31.865Z,96143.47
2022-09-06T02:10:27.319Z,96141.38
2022-09-06T02:13:17.351Z,96136.56
2022-09-06T02:16:07.612Z,96133.97
2022-09-06T02:19:00.504Z,96142.44
2022-09-06T02:21:51.775Z,96147.22
2022-09-06T02:24:42.469Z,96144.94
2022-09-06T02:27:31.123Z,96150.19
2022-09-06T02:30:18.745Z,96143.63
2022-09-06T02:33:16.058Z,96138.84
2022-09-06T02:36:08.123Z,96144.94
2022-09-06T02:38:55.201Z,96143.44
2022-09-06T02:41:45.600Z,96140.72
2022-09-06T02:44:32.948Z,96133.47
2022-09-06T02:47:19.882Z,96141.06
2022-09-06T02:50:08.325Z,96134.88
2022-09-06T02:53:04.311Z,96133.09
2022-09-06T02:55:51.393Z,96128.06
2022-09-06T02:58:38.489Z,96129.47
2022-09-06T03:01:25.621Z,96121.72
2022-09-06T03:04:12.588Z,96121.88
2022-09-06T03:06:59.530Z,96132.75
2022-09-06T03:09:46.557Z,96130.38
2022-09-06T03:12:33.533Z,96122.84
2022-09-06T03:15:21.113Z,96121.28
2022-09-06T03:18:08.069Z,96120.91
2022-09-06T03:20:56.299Z,96119.63
2022-09-06T03:23:43.306Z,96114.00
2022-09-06T03:26:30.739Z,96110.19
2022-09-06T03:29:17.821Z,96113.84
2022-09-06T03:32:04.915Z,96110.66
2022-09-06T03:34:51.945Z,96115.19
2022-09-06T03:37:38.860Z,96106.56
2022-09-06T03:40:26.356Z,96110.03
2022-09-06T03:43:14.001Z,96111.59
2022-09-06T03:46:01.014Z,96099.66
2022-09-06T03:48:48.122Z,96094.53
2022-09-06T03:51:35.084Z,96091.88
2022-09-06T03:54:22.071Z,96098.97
2022-09-06T03:57:09.947Z,96094.84
2022-09-06T03:59:56.933Z,96104.09
2022-09-06T04:02:43.915Z,96106.22
2022-09-06T04:05:30.989Z,96109.41
2022-09-06T04:08:17.889Z,96120.38
2022-09-06T04:11:05.997Z,96122.81
2022-09-06T04:13:53.040Z,96105.78
2022-09-06T04:16:40.133Z,96106.41
2022-09-06T04:19:27.187Z,96114.09
2022-09-06T04:22:14.097Z,96125.44
2022-09-06T04:25:01.527Z,96141.31
2022-09-06T04:27:49.201Z,96139.03
2022-09-06T04:30:36.250Z,96152.09
2022-09-06T04:33:27.305Z,96155.03
2022-09-06T04:36:14.374Z,96152.47
2022-09-06T04:39:01.449Z,96153.28
2022-09-06T04:41:48.506Z,96153.34
2022-09-06T04:44:35.626Z,96153.97
2022-09-06T04:47:23.085Z,96159.97
2022-09-06T04:50:10.231Z,96183.50
2022-09-06T04:52:57.170Z,96192.84
2022-09-06T04:55:44.248Z,96185.34
2022-09-06T04:58:31.261Z,96212.56
2022-09-06T05:01:18.795Z,96212.56
2022-09-06T05:04:08.982Z,96207.69
2022-09-06T05:07:05.800Z,96232.88
2022-09-06T05:09:52.916Z,96200.84
2022-09-06T05:12:44.168Z,96197.41
2022-09-06T05:15:31.395Z,96208.91
2022-09-06T05:18:18.376Z,96233.09
2022-09-06T05:21:05.725Z,96227.91
2022-09-06T05:23:56.681Z,96241.94
2022-09-06T05:26:45.649Z,96230.47
2022-09-06T05:29:32.691Z,96243.34
2022-09-06T05:32:19.822Z,96227.78
2022-09-06T05:35:07.027Z,96222.59
2022-09-06T05:37:54.006Z,96216.69
2022-09-06T05:40:41.196Z,96219.06
2022-09-06T05:43:28.220Z,96219.16
2022-09-06T05:46:16.230Z,96214.41
2022-09-06T05:49:08.055Z,96212.88
2022-09-06T05:51:55.052Z,96228.69
2022-09-06T05:54:41.991Z,96222.75
2022-09-06T05:57:28.969Z,96233.56
2022-09-06T06:00:15.993Z,96228.63
2022-09-06T06:03:02.912Z,96221.28
2022-09-06T06:05:49.944Z,96229.78
2022-09-06T06:08:37.167Z,96226.09
2022-09-06T06:11:26.019Z,96231.84
2022-09-06T06:14:13.101Z,96235.75
2022-09-06T06:17:00.392Z,96237.25
2022-09-06T06:19:47.664Z,96239.00
2022-09-06T06:22:34.653Z,96249.69
2022-09-06T06:25:26.226Z,96247.38
2022-09-06T06:28:13.303Z,96255.00
2022-09-06T06:31:00.252Z,96243.78
2022-09-06T06:33:47.199Z,96236.69
2022-09-06T06:36:36.030Z,96220.19
2022-09-06T06:39:23.272Z,96203.00
2022-09-06T06:42:10.341Z,96203.00
2022-09-06T06:44:57.382Z,96173.78
2022-09-06T06:47:44.393Z,96177.59
2022-09-06T06:50:31.433Z,96162.81
2022-09-06T06:53:19.502Z,96169.09
2022-09-06T06:56:32.258Z,96167.66
2022-09-06T06:59:19.322Z,96173.09
2022-09-06T07:02:07.355Z,96171.38
2022-09-06T07:04:54.437Z,96186.56
2022-09-06T07:07:41.673Z,96180.50
2022-09-06T07:13:19.146Z,96196.16
2022-09-06T07:16:07.033Z,96188.88
2022-09-06T07:18:55.084Z,96187.84
2022-09-06T07:21:42.022Z,96196.47
2022-09-06T07:24:28.973Z,96190.31
2022-09-06T07:30:22.891Z,96167.47
2022-09-06T07:33:09.892Z,96159.28
2022-09-06T07:36:02.025Z,96158.63
2022-09-06T07:38:50.394Z,96155.94
2022-09-06T07:41:37.359Z,96157.75
2022-09-06T07:44:24.429Z,96163.25
2022-09-06T07:53:31.077Z,96167.47
2022-09-06T07:56:21.775Z,96174.16
2022-09-06T07:59:09.427Z,96196.72
2022-09-06T08:01:56.464Z,96191.09
2022-09-06T08:04:47.561Z,96189.00
2022-09-06T08:10:24.896Z,96190.84
2022-09-06T08:13:11.869Z,96181.19
2022-09-06T08:16:09.899Z,96189.31
2022-09-06T08:18:58.956Z,96174.19
2022-09-06T08:21:45.902Z,96174.94
2022-09-06T08:24:35.826Z,96180.13
2022-09-06T08:27:23.032Z,96181.31
2022-09-06T08:30:10.697Z,96164.69
2022-09-06T08:32:57.647Z,96170.25
2022-09-06T08:35:54.972Z,96169.81
2022-09-06T08:38:42.139Z,96165.94
2022-09-06T08:42:01.419Z,96154.56
2022-09-06T08:47:41.326Z,96145.44
2022-09-06T08:50:29.408Z,96154.66
2022-09-06T08:53:23.392Z,96144.09
2022-09-06T08:56:28.648Z,96145.66
2022-09-06T08:59:17.741Z,96150.41
2022-09-06T09:02:17.445Z,96144.63
2022-09-06T09:05:06.668Z,96134.97
2022-09-06T09:08:05.458Z,96135.84
2022-09-06T09:10:59.706Z,96133.22
2022-09-06T09:13:59.407Z,96134.53
2022-09-06T09:16:50.939Z,96119.47
2022-09-06T09:19:41.452Z,96106.34
2022-09-06T09:22:28.535Z,96088.31
2022-09-06T09:25:22.621Z,96096.19
2022-09-06T09:28:23.444Z,96103.44
2022-09-06T09:31:10.601Z,96095.13
2022-09-06T09:33:58.163Z,96099.19
2022-09-06T09:39:58.082Z,96079.00
2022-09-06T09:42:45.190Z,96066.41
2022-09-06T09:45:32.199Z,96082.78
2022-09-06T09:48:25.262Z,96079.75
2022-09-06T09:51:27.334Z,96072.72
2022-09-06T09:54:31.495Z,96066.75
2022-09-06T09:57:19.707Z,96074.50
2022-09-06T10:00:13.172Z,96073.00
2022-09-06T10:03:01.143Z,96075.91
2022-09-06T10:06:02.475Z,96090.19
2022-09-06T10:08:50.410Z,96085.72
2022-09-06T10:11:50.116Z,96092.66
2022-09-06T10:14:44.236Z,96083.34
2022-09-06T10:17:34.360Z,96067.91
2022-09-06T10:20:25.117Z,96053.78
2022-09-06T10:26:59.200Z,96042.94
2022-09-06T10:30:01.549Z,96052.81
2022-09-06T10:33:03.315Z,96053.34
2022-09-06T10:35:50.332Z,96053.75
2022-09-06T10:39:04.042Z,96050.72
2022-09-06T10:42:20.851Z,96046.13
2022-09-06T10:45:33.044Z,96052.06
2022-09-06T10:48:24.429Z,96041.53
2022-09-06T10:51:30.041Z,96043.19
2022-09-06T10:54:24.966Z,96041.66
2022-09-06T11:00:27.262Z,96031.66
2022-09-06T11:06:49.784Z,96040.81
2022-09-06T11:09:50.637Z,96043.63
2022-09-06T11:12:37.557Z,96045.59
2022-09-06T11:15:30.096Z,96037.38
2022-09-06T11:18:24.556Z,96038.56
2022-09-06T11:21:18.797Z,96033.31
2022-09-06T11:24:15.283Z,96032.56
2022-09-06T11:27:16.873Z,96048.69
2022-09-06T11:30:06.112Z,96045.31
2022-09-06T11:33:35.523Z,96040.59
2022-09-06T11:36:36.766Z,96041.16
2022-09-06T11:42:44.286Z,96028.44
2022-09-06T11:45:47.779Z,96023.06
2022-09-06T11:48:48.736Z,96005.94
2022-09-06T11:51:40.928Z,96001.00
2022-09-06T11:54:47.413Z,96000.06
2022-09-06T11:57:34.475Z,96005.50
2022-09-06T12:00:24.425Z,96009.03
2022-09-06T12:07:12.311Z,96002.44
2022-09-06T12:10:23.069Z,95981.38
2022-09-06T12:13:47.135Z,95997.41
2022-09-06T12:16:55.732Z,96003.19
2022-09-06T12:20:06.968Z,95999.63
2022-09-06T12:22:54.603Z,96004.41
2022-09-06T12:25:41.500Z,96000.94
2022-09-06T12:28:49.941Z,96008.47
2022-09-06T12:31:39.754Z,95996.41
2022-09-06T12:34:35.321Z,96001.59
2022-09-06T12:37:55.056Z,95995.88
2022-09-06T12:40:48.113Z,95996.44
2022-09-06T12:43:39.259Z,95997.38
2022-09-06T12:46:29.926Z,96000.47
2022-09-06T12:49:20.947Z,96000.06
2022-09-06T12:52:16.288Z,95997.53
2022-09-06T12:55:16.077Z,95986.41
2022-09-06T12:58:07.669Z,95990.00
2022-09-06T13:01:04.698Z,95995.84
2022-09-06T13:04:15.961Z,95990.78
2022-09-06T13:07:04.725Z,95993.81
2022-09-06T13:09:55.649Z,95982.97
2022-09-06T13:12:45.849Z,95981.38
2022-09-06T13:15:32.933Z,95984.28
2022-09-06T13:18:35.581Z,95978.66
2022-09-06T13:21:35.441Z,95983.63
2022-09-06T13:24:41.378Z,95984.53
2022-09-06T13:27:30.354Z,95989.03
2022-09-06T13:30:49.514Z,95988.25
2022-09-06T13:33:37.877Z,95981.53
2022-09-06T13:36:30.746Z,95965.16
2022-09-06T13:39:46.677Z,95966.56
2022-09-06T13:42:38.153Z,95971.00
2022-09-06T13:45:28.385Z,95981.63
2022-09-06T13:48:28.722Z,95982.38
2022-09-06T13:51:16.291Z,95980.00
2022-09-06T13:54:08.428Z,95972.06
2022-09-06T13:56:56.123Z,95976.38
2022-09-06T13:59:43.148Z,95967.47
2022-09-06T14:02:30.229Z,95962.53
2022-09-06T14:05:18.025Z,95954.72
2022-09-06T14:08:05.169Z,95967.28
2022-09-06T14:10:52.494Z,95971.38
2022-09-06T14:13:39.751Z,95970.38
2022-09-06T14:16:26.879Z,95965.78
2022-09-06T14:19:14.675Z,95969.81
2022-09-06T14:22:02.245Z,95970.59
2022-09-06T14:24:49.641Z,95958.88
2022-09-06T14:27:36.785Z,95962.22
2022-09-06T14:30:23.725Z,95949.75
2022-09-06T14:33:10.642Z,95954.59
2022-09-06T14:35:57.692Z,95940.84
2022-09-06T14:38:45.956Z,95940.22
2022-09-06T14:41:33.041Z,95940.09
2022-09-06T14:44:20.104Z,95942.22
2022-09-06T14:47:07.029Z,95937.69
2022-09-06T14:49:54.024Z,95934.00
2022-09-06T14:52:40.945Z,95931.50
2022-09-06T14:55:28.201Z,95927.66
2022-09-06T14:58:15.687Z,95928.78
2022-09-06T15:01:13.184Z,95929.75
2022-09-06T15:04:05.249Z,95926.94
2022-09-06T15:06:52.456Z,95934.75
2022-09-06T15:09:39.643Z,95934.69
2022-09-06T15:12:26.578Z,95955.44
2022-09-06T15:15:13.605Z,95955.31
2022-09-06T15:18:00.527Z,95938.91
2022-09-06T15:20:48.184Z,95940.09
2022-09-06T15:23:35.157Z,95927.31
2022-09-06T15:26:22.108Z,95926.22
2022-09-06T15:29:11.820Z,95932.94
2022-09-06T15:31:59.683Z,95934.34
2022-09-06T15:34:46.666Z,95926.97
2022-09-06T15:37:33.585Z,95928.31
2022-09-06T15:40:24.482Z,95925.59
2022-09-06T15:43:11.416Z,95923.69
2022-09-06T15:45:58.457Z,95916.78
2022-09-06T15:48:48.509Z,95920.88
2022-09-06T15:51:37.168Z,95920.16
2022-09-06T15:54:44.437Z,95905.44
2022-09-06T15:57:31.427Z,95904.50
2022-09-06T16:00:22.027Z,95912.56
2022-09-06T16:03:08.942Z,95914.81
2022-09-06T16:09:14.361Z,95899.88
2022-09-06T16:12:01.449Z,95899.97
2022-09-06T16:14:48.420Z,95900.22
2022-09-06T16:17:35.388Z,95895.19
2022-09-06T16:20:23.268Z,95896.31
2022-09-06T16:23:10.186Z,95902.53
2022-09-06T16:25:57.287Z,95901.22
2022-09-06T16:28:44.768Z,95895.47
2022-09-06T16:31:39.135Z,95896.97
2022-09-06T16:34:27.516Z,95904.00
2022-09-06T16:37:14.476Z,95896.69
2022-09-06T16:40:01.879Z,95901.34
2022-09-06T16:42:49.093Z,95888.00
2022-09-06T16:45:36.064Z,95885.34
2022-09-06T16:48:23.142Z,95882.84
2022-09-06T16:51:16.412Z,95885.91
2022-09-06T16:54:03.517Z,95891.56
2022-09-06T16:56:50.574Z,95884.91
2022-09-06T16:59:37.674Z,95888.56
2022-09-06T17:02:24.974Z,95893.34
2022-09-06T17:05:14.253Z,95894.78
2022-09-06T17:08:01.472Z,95892.19
2022-09-06T17:10:48.507Z,95892.81
2022-09-06T17:13:36.337Z,95897.84
2022-09-06T17:16:42.895Z,95892.50
2022-09-06T17:19:31.349Z,95894.72
2022-09-06T17:22:18.312Z,95902.97
2022-09-06T17:25:06.193Z,95900.88
2022-09-06T17:27:53.122Z,95894.03
2022-09-06T17:30:40.339Z,95900.88
2022-09-06T17:33:27.852Z,95905.00
2022-09-06T17:36:23.807Z,95904.69
2022-09-06T17:39:15.576Z,95910.50
2022-09-06T17:42:02.489Z,95909.69
2022-09-06T17:44:49.431Z,95909.50
2022-09-06T17:47:36.789Z,95912.84
2022-09-06T17:50:23.898Z,95909.72
2022-09-06T17:53:11.169Z,95914.78
2022-09-06T17:55:58.112Z,95914.59
2022-09-06T17:59:01.689Z,95911.38
2022-09-06T18:01:48.831Z,95910.75
2022-09-06T18:04:35.895Z,95911.81
2022-09-06T18:07:22.899Z,95919.25
2022-09-06T18:10:10.733Z,95917.72
2022-09-06T18:12:58.206Z,95922.34
2022-09-06T18:15:45.225Z,95918.41
2022-09-06T18:18:33.573Z,95909.19
2022-09-06T18:21:21.032Z,95901.06
2022-09-06T18:24:09.416Z,95897.59
2022-09-06T18:26:56.350Z,95897.53
2022-09-06T18:29:43.610Z,95893.47
2022-09-06T18:32:30.978Z,95894.69
2022-09-06T18:35:17.998Z,95905.28
2022-09-06T18:38:05.149Z,95908.63
2022-09-06T18:41:00.513Z,95907.59
2022-09-06T18:43:47.463Z,95913.56
2022-09-06T18:46:38.081Z,95901.75
2022-09-06T18:49:25.163Z,95910.09
2022-09-06T18:52:12.155Z,95901.63
2022-09-06T18:54:59.241Z,95915.44
2022-09-06T18:57:46.193Z,95917.75
2022-09-06T19:00:33.401Z,95925.84
2022-09-06T19:03:20.325Z,95929.13
2022-09-06T19:06:12.163Z,95930.59
2022-09-06T19:09:06.085Z,95919.84
2022-09-06T19:11:53.490Z,95918.34
2022-09-06T19:14:40.461Z,95915.72
2022-09-06T19:17:27.657Z,95911.75
2022-09-06T19:20:14.673Z,95904.78
2022-09-06T19:23:02.925Z,95905.63
2022-09-06T19:26:07.136Z,95906.03
2022-09-06T19:28:59.833Z,95904.81
2022-09-06T19:31:47.432Z,95905.84
2022-09-06T19:34:34.880Z,95906.03
2022-09-06T19:37:23.864Z,95909.44
2022-09-06T19:40:11.235Z,95905.34
2022-09-06T19:42:58.323Z,95901.63
2022-09-06T19:45:45.299Z,95896.09
2022-09-06T19:48:33.294Z,95901.97
2022-09-06T19:51:20.728Z,95894.47
2022-09-06T19:54:07.737Z,95884.03
2022-09-06T19:56:54.680Z,95882.78
2022-09-06T19:59:41.686Z,95877.00
2022-09-06T20:02:28.644Z,95884.13
2022-09-06T20:05:17.008Z,95878.97
2022-09-06T20:08:04.199Z,95881.81
2022-09-06T20:10:53.044Z,95873.22
2022-09-06T20:13:40.532Z,95871.69
2022-09-06T20:16:28.423Z,95865.81
2022-09-06T20:19:15.928Z,95869.88
2022-09-06T20:22:03.053Z,95876.97
2022-09-06T20:24:50.137Z,95869.34
2022-09-06T20:27:39.314Z,95865.34
2022-09-06T20:30:30.215Z,95866.78
2022-09-06T20:33:17.427Z,95866.75
2022-09-06T20:36:07.432Z,95866.00
2022-09-06T20:38:54.472Z,95877.13
2022-09-06T20:41:41.525Z,95867.47
2022-09-06T20:44:28.606Z,95860.25
2022-09-06T20:47:15.656Z,95860.06
2022-09-06T20:50:02.693Z,95870.91
2022-09-06T20:52:49.660Z,95858.81
2022-09-06T20:55:36.925Z,95864.63
2022-09-06T20:58:24.359Z,95866.31
2022-09-06T21:01:16.643Z,95857.25
2022-09-06T21:04:06.678Z,95857.16
2022-09-06T21:06:53.653Z,95863.47
2022-09-06T21:09:40.669Z,95872.00
2022-09-06T21:12:27.693Z,95867.88
2022-09-06T21:15:15.655Z,95872.88
2022-09-06T21:18:03.715Z,95865.91
2022-09-06T21:21:02.379Z,95867.72
2022-09-06T21:23:49.440Z,95870.22
2022-09-06T21:26:36.856Z,95876.88
2022-09-06T21:29:23.892Z,95883.16
2022-09-06T21:32:10.807Z,95884.75
2022-09-06T21:34:57.754Z,95893.94
2022-09-06T21:37:44.663Z,95896.00
2022-09-06T21:40:34.628Z,95896.25
2022-09-06T21:43:21.674Z,95897.88
2022-09-06T21:46:12.610Z,95903.63
2022-09-06T21:49:04.485Z,95898.59
2022-09-06T21:51:52.297Z,95890.69
2022-09-06T21:54:39.446Z,95899.13
2022-09-06T21:57:26.459Z,95898.78
2022-09-06T22:00:15.420Z,95897.94
2022-09-06T22:03:03.118Z,95892.75
2022-09-06T22:05:50.307Z,95897.16
2022-09-06T22:08:38.301Z,95886.19
2022-09-06T22:11:28.290Z,95883.53
2022-09-06T22:14:15.786Z,95886.91
2022-09-06T22:17:03.157Z,95883.03
2022-09-06T22:19:50.677Z,95877.28
2022-09-06T22:22:38.554Z,95873.19
2022-09-06T22:25:25.847Z,95884.75
2022-09-06T22:28:13.164Z,95893.53
2022-09-06T22:31:00.863Z,95886.41
2022-09-06T22:33:48.093Z,95882.63
2022-09-06T22:36:35.696Z,95873.56
2022-09-06T22:39:23.261Z,95881.63
2022-09-06T22:42:10.249Z,95883.75
2022-09-06T22:44:57.193Z,95874.91
2022-09-06T22:47:44.387Z,95884.41
2022-09-06T22:50:31.518Z,95880.44
2022-09-06T22:53:19.098Z,95891.44
2022-09-06T22:56:06.798Z,95880.72
2022-09-06T22:58:54.210Z,95882.19
2022-09-06T23:01:41.460Z,95879.59
2022-09-06T23:04:28.529Z,95872.00
2022-09-06T23:07:15.489Z,95868.19
2022-09-06T23:10:02.640Z,95872.94
2022-09-06T23:12:52.476Z,95865.22
2022-09-06T23:15:41.181Z,95868.84
2022-09-06T23:18:28.387Z,95866.88
2022-09-06T23:21:20.977Z,95864.19
2022-09-06T23:24:08.033Z,95864.44
2022-09-06T23:26:55.588Z,95865.91
2022-09-06T23:29:44.003Z,95866.16
2022-09-06T23:32:34.046Z,95863.88
2022-09-06T23:35:21.549Z,95862.88
2022-09-06T23:38:08.529Z,95870.47
2022-09-06T23:40:55.539Z,95868.22
2022-09-06T23:43:43.805Z,95869.72
2022-09-06T23:46:31.872Z,95869.22
2022-09-06T23:49:19.153Z,95872.03
2022-09-06T23:52:06.205Z,95865.06
2022-09-06T23:54:53.215Z,95859.41
2022-09-06T23:57:40.160Z,95858.81
